sensor_id;sensor_type;location;lat;lon;timestamp;P1;durP1;ratioP1;P2;durP2;ratioP2
37495;SDS011;23346;52.088;4.746;2023-01-01T00:02:02;154.70;;;82.45;;
37495;SDS011;23346;52.088;4.746;2023-01-01T00:04:28;51.20;;;30.03;;
37495;SDS011;23346;52.088;4.746;2023-01-01T00:06:54;99.93;;;54.33;;
37495;SDS011;23346;52.088;4.746;2023-01-01T00:09:20;42.57;;;23.80;;
37495;SDS011;23346;52.088;4.746;2023-01-01T00:12:04;32.80;;;18.87;;
37495;SDS011;23346;52.088;4.746;2023-01-01T00:14:30;54.33;;;25.75;;
37495;SDS011;23346;52.088;4.746;2023-01-01T00:16:56;32.33;;;17.43;;
37495;SDS011;23346;52.088;4.746;2023-01-01T00:19:22;38.73;;;19.00;;
37495;SDS011;23346;52.088;4.746;2023-01-01T00:21:48;115.27;;;57.80;;
37495;SDS011;23346;52.088;4.746;2023-01-01T00:24:14;36.17;;;15.83;;
37495;SDS011;23346;52.088;4.746;2023-01-01T00:26:40;33.30;;;17.13;;
37495;SDS011;23346;52.088;4.746;2023-01-01T00:29:06;25.07;;;10.77;;
37495;SDS011;23346;52.088;4.746;2023-01-01T00:31:32;27.00;;;13.18;;
37495;SDS011;23346;52.088;4.746;2023-01-01T00:33:58;30.70;;;14.90;;
37495;SDS011;23346;52.088;4.746;2023-01-01T00:36:25;33.30;;;14.97;;
37495;SDS011;23346;52.088;4.746;2023-01-01T00:38:51;26.80;;;12.03;;
37495;SDS011;23346;52.088;4.746;2023-01-01T00:41:18;22.05;;;6.72;;
37495;SDS011;23346;52.088;4.746;2023-01-01T00:43:44;22.27;;;10.32;;
37495;SDS011;23346;52.088;4.746;2023-01-01T00:46:10;39.90;;;16.27;;
37495;SDS011;23346;52.088;4.746;2023-01-01T00:48:36;27.17;;;10.60;;
37495;SDS011;23346;52.088;4.746;2023-01-01T00:51:03;17.27;;;7.47;;
37495;SDS011;23346;52.088;4.746;2023-01-01T00:53:29;29.73;;;12.40;;
37495;SDS011;23346;52.088;4.746;2023-01-01T00:55:55;16.75;;;7.97;;
37495;SDS011;23346;52.088;4.746;2023-01-01T00:58:22;16.85;;;8.57;;
37495;SDS011;23346;52.088;4.746;2023-01-01T01:00:48;18.35;;;5.90;;
37495;SDS011;23346;52.088;4.746;2023-01-01T01:03:14;16.73;;;8.23;;
37495;SDS011;23346;52.088;4.746;2023-01-01T01:06:14;15.30;;;6.97;;
37495;SDS011;23346;52.088;4.746;2023-01-01T01:08:40;17.53;;;6.57;;
37495;SDS011;23346;52.088;4.746;2023-01-01T01:11:08;17.63;;;6.30;;
37495;SDS011;23346;52.088;4.746;2023-01-01T01:13:34;18.63;;;6.43;;
37495;SDS011;23346;52.088;4.746;2023-01-01T01:16:00;24.73;;;7.17;;
37495;SDS011;23346;52.088;4.746;2023-01-01T01:18:26;14.13;;;5.47;;
37495;SDS011;23346;52.088;4.746;2023-01-01T01:20:52;18.00;;;7.87;;
37495;SDS011;23346;52.088;4.746;2023-01-01T01:23:19;13.77;;;4.80;;
37495;SDS011;23346;52.088;4.746;2023-01-01T01:25:45;5.97;;;3.47;;
37495;SDS011;23346;52.088;4.746;2023-01-01T01:28:11;7.97;;;3.03;;
37495;SDS011;23346;52.088;4.746;2023-01-01T01:30:38;14.97;;;4.47;;
37495;SDS011;23346;52.088;4.746;2023-01-01T01:33:04;12.03;;;4.07;;
37495;SDS011;23346;52.088;4.746;2023-01-01T01:35:30;12.03;;;3.53;;
37495;SDS011;23346;52.088;4.746;2023-01-01T01:37:57;18.03;;;5.17;;
37495;SDS011;23346;52.088;4.746;2023-01-01T01:40:23;12.90;;;3.97;;
37495;SDS011;23346;52.088;4.746;2023-01-01T01:42:49;13.67;;;3.13;;
37495;SDS011;23346;52.088;4.746;2023-01-01T01:45:15;10.30;;;3.60;;
37495;SDS011;23346;52.088;4.746;2023-01-01T01:47:48;13.37;;;3.70;;
37495;SDS011;23346;52.088;4.746;2023-01-01T01:50:20;10.38;;;2.97;;
37495;SDS011;23346;52.088;4.746;2023-01-01T01:53:22;9.75;;;2.92;;
37495;SDS011;23346;52.088;4.746;2023-01-01T01:55:47;12.30;;;3.00;;
37495;SDS011;23346;52.088;4.746;2023-01-01T01:58:14;9.20;;;2.83;;
37495;SDS011;23346;52.088;4.746;2023-01-01T02:00:40;8.57;;;3.33;;
37495;SDS011;23346;52.088;4.746;2023-01-01T02:03:11;8.97;;;2.57;;
37495;SDS011;23346;52.088;4.746;2023-01-01T02:05:39;10.03;;;3.77;;
37495;SDS011;23346;52.088;4.746;2023-01-01T02:08:06;9.23;;;2.87;;
37495;SDS011;23346;52.088;4.746;2023-01-01T02:10:33;9.90;;;3.13;;
37495;SDS011;23346;52.088;4.746;2023-01-01T02:12:59;8.40;;;2.67;;
37495;SDS011;23346;52.088;4.746;2023-01-01T02:15:27;5.57;;;2.40;;
37495;SDS011;23346;52.088;4.746;2023-01-01T02:18:29;11.47;;;3.07;;
37495;SDS011;23346;52.088;4.746;2023-01-01T02:20:53;7.93;;;2.72;;
37495;SDS011;23346;52.088;4.746;2023-01-01T02:31:13;8.63;;;2.20;;
37495;SDS011;23346;52.088;4.746;2023-01-01T02:33:40;5.55;;;1.67;;
37495;SDS011;23346;52.088;4.746;2023-01-01T02:36:08;6.87;;;1.90;;
37495;SDS011;23346;52.088;4.746;2023-01-01T02:38:54;10.57;;;1.55;;
37495;SDS011;23346;52.088;4.746;2023-01-01T02:41:22;8.97;;;2.90;;
37495;SDS011;23346;52.088;4.746;2023-01-01T02:43:50;10.20;;;1.87;;
37495;SDS011;23346;52.088;4.746;2023-01-01T02:46:16;12.07;;;5.50;;
37495;SDS011;23346;52.088;4.746;2023-01-01T02:48:43;7.67;;;1.80;;
37495;SDS011;23346;52.088;4.746;2023-01-01T02:53:40;6.13;;;1.97;;
37495;SDS011;23346;52.088;4.746;2023-01-01T02:56:13;7.60;;;2.83;;
37495;SDS011;23346;52.088;4.746;2023-01-01T02:58:49;11.27;;;2.07;;
37495;SDS011;23346;52.088;4.746;2023-01-01T03:01:38;7.77;;;2.13;;
37495;SDS011;23346;52.088;4.746;2023-01-01T03:04:10;11.43;;;1.87;;
37495;SDS011;23346;52.088;4.746;2023-01-01T03:06:41;7.93;;;1.83;;
37495;SDS011;23346;52.088;4.746;2023-01-01T03:11:43;7.57;;;2.60;;
37495;SDS011;23346;52.088;4.746;2023-01-01T03:14:17;10.67;;;1.70;;
37495;SDS011;23346;52.088;4.746;2023-01-01T03:19:19;6.63;;;1.87;;
37495;SDS011;23346;52.088;4.746;2023-01-01T03:24:33;7.07;;;2.43;;
37495;SDS011;23346;52.088;4.746;2023-01-01T03:27:01;11.00;;;1.97;;
37495;SDS011;23346;52.088;4.746;2023-01-01T03:29:29;9.10;;;2.53;;
37495;SDS011;23346;52.088;4.746;2023-01-01T03:31:56;8.20;;;1.83;;
37495;SDS011;23346;52.088;4.746;2023-01-01T03:34:26;6.17;;;1.57;;
37495;SDS011;23346;52.088;4.746;2023-01-01T03:36:53;11.50;;;2.17;;
37495;SDS011;23346;52.088;4.746;2023-01-01T03:39:33;5.30;;;1.97;;
37495;SDS011;23346;52.088;4.746;2023-01-01T03:44:27;12.40;;;2.23;;
37495;SDS011;23346;52.088;4.746;2023-01-01T03:46:55;6.67;;;1.50;;
37495;SDS011;23346;52.088;4.746;2023-01-01T03:49:21;12.07;;;1.93;;
37495;SDS011;23346;52.088;4.746;2023-01-01T03:51:55;9.60;;;2.00;;
37495;SDS011;23346;52.088;4.746;2023-01-01T03:57:13;4.40;;;1.30;;
37495;SDS011;23346;52.088;4.746;2023-01-01T04:02:15;6.30;;;1.00;;
37495;SDS011;23346;52.088;4.746;2023-01-01T04:04:42;5.93;;;1.30;;
37495;SDS011;23346;52.088;4.746;2023-01-01T04:07:08;6.67;;;1.30;;
37495;SDS011;23346;52.088;4.746;2023-01-01T04:09:34;1.97;;;0.80;;
37495;SDS011;23346;52.088;4.746;2023-01-01T04:12:01;3.70;;;1.10;;
37495;SDS011;23346;52.088;4.746;2023-01-01T04:14:29;3.57;;;1.00;;
37495;SDS011;23346;52.088;4.746;2023-01-01T04:16:57;8.27;;;1.20;;
37495;SDS011;23346;52.088;4.746;2023-01-01T04:19:23;8.03;;;1.90;;
37495;SDS011;23346;52.088;4.746;2023-01-01T04:21:48;2.37;;;0.80;;
37495;SDS011;23346;52.088;4.746;2023-01-01T04:24:15;5.80;;;1.00;;
37495;SDS011;23346;52.088;4.746;2023-01-01T04:26:41;4.83;;;1.00;;
37495;SDS011;23346;52.088;4.746;2023-01-01T04:29:07;2.90;;;1.00;;
37495;SDS011;23346;52.088;4.746;2023-01-01T04:31:33;8.63;;;1.10;;
37495;SDS011;23346;52.088;4.746;2023-01-01T04:33:59;5.63;;;1.03;;
37495;SDS011;23346;52.088;4.746;2023-01-01T04:36:25;5.60;;;0.90;;
37495;SDS011;23346;52.088;4.746;2023-01-01T04:38:51;5.80;;;1.30;;
37495;SDS011;23346;52.088;4.746;2023-01-01T04:41:17;3.00;;;1.20;;
37495;SDS011;23346;52.088;4.746;2023-01-01T04:43:47;3.53;;;1.30;;
37495;SDS011;23346;52.088;4.746;2023-01-01T04:46:16;5.37;;;1.23;;
37495;SDS011;23346;52.088;4.746;2023-01-01T04:48:43;7.67;;;1.20;;
37495;SDS011;23346;52.088;4.746;2023-01-01T04:51:09;7.27;;;1.60;;
37495;SDS011;23346;52.088;4.746;2023-01-01T04:53:36;9.03;;;2.30;;
37495;SDS011;23346;52.088;4.746;2023-01-01T04:56:03;12.20;;;1.90;;
37495;SDS011;23346;52.088;4.746;2023-01-01T04:58:29;7.57;;;1.50;;
37495;SDS011;23346;52.088;4.746;2023-01-01T05:00:55;12.63;;;1.83;;
37495;SDS011;23346;52.088;4.746;2023-01-01T05:03:21;12.33;;;2.23;;
37495;SDS011;23346;52.088;4.746;2023-01-01T05:05:48;11.03;;;2.00;;
37495;SDS011;23346;52.088;4.746;2023-01-01T05:08:23;7.30;;;1.57;;
37495;SDS011;23346;52.088;4.746;2023-01-01T05:10:49;5.17;;;1.43;;
37495;SDS011;23346;52.088;4.746;2023-01-01T05:13:15;9.40;;;1.20;;
37495;SDS011;23346;52.088;4.746;2023-01-01T05:15:41;6.30;;;1.30;;
37495;SDS011;23346;52.088;4.746;2023-01-01T05:18:07;12.53;;;2.07;;
37495;SDS011;23346;52.088;4.746;2023-01-01T05:20:33;16.23;;;1.40;;
37495;SDS011;23346;52.088;4.746;2023-01-01T05:22:59;7.87;;;1.73;;
37495;SDS011;23346;52.088;4.746;2023-01-01T05:25:25;11.53;;;1.70;;
37495;SDS011;23346;52.088;4.746;2023-01-01T05:27:51;10.80;;;2.17;;
37495;SDS011;23346;52.088;4.746;2023-01-01T05:30:17;8.67;;;1.97;;
37495;SDS011;23346;52.088;4.746;2023-01-01T05:32:43;10.30;;;1.67;;
37495;SDS011;23346;52.088;4.746;2023-01-01T05:35:09;13.57;;;1.60;;
37495;SDS011;23346;52.088;4.746;2023-01-01T05:37:35;13.27;;;1.60;;
37495;SDS011;23346;52.088;4.746;2023-01-01T05:40:01;9.47;;;1.23;;
37495;SDS011;23346;52.088;4.746;2023-01-01T05:42:27;8.70;;;1.43;;
37495;SDS011;23346;52.088;4.746;2023-01-01T05:44:53;9.20;;;1.83;;
37495;SDS011;23346;52.088;4.746;2023-01-01T05:47:19;9.30;;;1.30;;
37495;SDS011;23346;52.088;4.746;2023-01-01T05:49:46;5.17;;;1.27;;
37495;SDS011;23346;52.088;4.746;2023-01-01T05:52:12;7.63;;;2.13;;
37495;SDS011;23346;52.088;4.746;2023-01-01T05:54:38;18.37;;;2.17;;
37495;SDS011;23346;52.088;4.746;2023-01-01T05:57:04;8.67;;;1.33;;
37495;SDS011;23346;52.088;4.746;2023-01-01T05:59:30;8.63;;;1.40;;
37495;SDS011;23346;52.088;4.746;2023-01-01T06:01:56;7.30;;;1.33;;
37495;SDS011;23346;52.088;4.746;2023-01-01T06:04:22;6.80;;;1.60;;
37495;SDS011;23346;52.088;4.746;2023-01-01T06:06:48;12.20;;;1.87;;
37495;SDS011;23346;52.088;4.746;2023-01-01T06:09:14;13.03;;;2.37;;
37495;SDS011;23346;52.088;4.746;2023-01-01T06:11:40;7.87;;;1.17;;
37495;SDS011;23346;52.088;4.746;2023-01-01T06:14:05;7.40;;;1.53;;
37495;SDS011;23346;52.088;4.746;2023-01-01T06:16:31;9.30;;;1.30;;
37495;SDS011;23346;52.088;4.746;2023-01-01T06:18:57;17.80;;;1.50;;
37495;SDS011;23346;52.088;4.746;2023-01-01T06:21:24;9.70;;;1.40;;
37495;SDS011;23346;52.088;4.746;2023-01-01T06:23:50;14.17;;;1.57;;
37495;SDS011;23346;52.088;4.746;2023-01-01T06:26:20;5.13;;;1.63;;
37495;SDS011;23346;52.088;4.746;2023-01-01T06:28:47;9.33;;;1.47;;
37495;SDS011;23346;52.088;4.746;2023-01-01T06:31:14;7.43;;;1.37;;
37495;SDS011;23346;52.088;4.746;2023-01-01T06:33:40;8.20;;;1.80;;
37495;SDS011;23346;52.088;4.746;2023-01-01T06:36:07;12.73;;;1.80;;
37495;SDS011;23346;52.088;4.746;2023-01-01T06:38:34;10.87;;;1.43;;
37495;SDS011;23346;52.088;4.746;2023-01-01T06:41:04;7.77;;;1.20;;
37495;SDS011;23346;52.088;4.746;2023-01-01T06:43:31;8.43;;;1.63;;
37495;SDS011;23346;52.088;4.746;2023-01-01T06:48:33;10.83;;;1.47;;
37495;SDS011;23346;52.088;4.746;2023-01-01T06:51:12;6.57;;;1.27;;
37495;SDS011;23346;52.088;4.746;2023-01-01T06:53:39;6.50;;;1.10;;
37495;SDS011;23346;52.088;4.746;2023-01-01T06:56:05;8.53;;;1.67;;
37495;SDS011;23346;52.088;4.746;2023-01-01T06:58:31;7.67;;;1.30;;
37495;SDS011;23346;52.088;4.746;2023-01-01T07:01:04;7.53;;;1.77;;
37495;SDS011;23346;52.088;4.746;2023-01-01T07:03:30;12.07;;;1.80;;
37495;SDS011;23346;52.088;4.746;2023-01-01T07:05:56;8.07;;;1.13;;
37495;SDS011;23346;52.088;4.746;2023-01-01T07:08:22;15.67;;;1.50;;
37495;SDS011;23346;52.088;4.746;2023-01-01T07:10:48;6.97;;;1.50;;
37495;SDS011;23346;52.088;4.746;2023-01-01T07:13:14;5.63;;;1.23;;
37495;SDS011;23346;52.088;4.746;2023-01-01T07:15:40;10.57;;;1.53;;
37495;SDS011;23346;52.088;4.746;2023-01-01T07:18:08;16.67;;;1.10;;
37495;SDS011;23346;52.088;4.746;2023-01-01T07:20:34;14.20;;;1.67;;
37495;SDS011;23346;52.088;4.746;2023-01-01T07:23:00;5.40;;;1.37;;
37495;SDS011;23346;52.088;4.746;2023-01-01T07:25:26;7.47;;;1.37;;
37495;SDS011;23346;52.088;4.746;2023-01-01T07:27:52;9.43;;;1.50;;
37495;SDS011;23346;52.088;4.746;2023-01-01T07:30:18;8.73;;;1.43;;
37495;SDS011;23346;52.088;4.746;2023-01-01T07:32:44;14.77;;;2.17;;
37495;SDS011;23346;52.088;4.746;2023-01-01T07:35:10;14.67;;;1.73;;
37495;SDS011;23346;52.088;4.746;2023-01-01T07:37:36;4.83;;;1.00;;
37495;SDS011;23346;52.088;4.746;2023-01-01T07:40:02;10.73;;;1.70;;
37495;SDS011;23346;52.088;4.746;2023-01-01T07:42:28;9.97;;;1.57;;
37495;SDS011;23346;52.088;4.746;2023-01-01T07:44:54;7.77;;;1.47;;
37495;SDS011;23346;52.088;4.746;2023-01-01T07:47:22;17.00;;;1.30;;
37495;SDS011;23346;52.088;4.746;2023-01-01T07:49:48;10.37;;;1.40;;
37495;SDS011;23346;52.088;4.746;2023-01-01T07:52:14;7.60;;;1.40;;
37495;SDS011;23346;52.088;4.746;2023-01-01T07:54:40;10.53;;;1.47;;
37495;SDS011;23346;52.088;4.746;2023-01-01T07:57:06;7.67;;;1.23;;
37495;SDS011;23346;52.088;4.746;2023-01-01T07:59:32;9.50;;;1.50;;
37495;SDS011;23346;52.088;4.746;2023-01-01T08:01:58;11.70;;;1.70;;
37495;SDS011;23346;52.088;4.746;2023-01-01T08:04:25;11.40;;;1.13;;
37495;SDS011;23346;52.088;4.746;2023-01-01T08:06:51;9.67;;;1.00;;
37495;SDS011;23346;52.088;4.746;2023-01-01T08:09:17;10.43;;;1.30;;
37495;SDS011;23346;52.088;4.746;2023-01-01T08:11:43;13.93;;;1.87;;
37495;SDS011;23346;52.088;4.746;2023-01-01T08:14:09;5.27;;;1.30;;
37495;SDS011;23346;52.088;4.746;2023-01-01T08:16:35;20.90;;;1.90;;
37495;SDS011;23346;52.088;4.746;2023-01-01T08:19:01;7.73;;;1.10;;
37495;SDS011;23346;52.088;4.746;2023-01-01T08:21:28;11.97;;;1.27;;
37495;SDS011;23346;52.088;4.746;2023-01-01T08:23:54;4.83;;;1.17;;
37495;SDS011;23346;52.088;4.746;2023-01-01T08:26:27;7.87;;;1.27;;
37495;SDS011;23346;52.088;4.746;2023-01-01T08:28:54;12.60;;;1.20;;
37495;SDS011;23346;52.088;4.746;2023-01-01T08:31:20;9.87;;;1.17;;
37495;SDS011;23346;52.088;4.746;2023-01-01T08:33:46;10.53;;;1.20;;
37495;SDS011;23346;52.088;4.746;2023-01-01T08:36:12;16.50;;;1.27;;
37495;SDS011;23346;52.088;4.746;2023-01-01T08:38:40;10.63;;;1.47;;
37495;SDS011;23346;52.088;4.746;2023-01-01T08:41:06;15.00;;;2.10;;
37495;SDS011;23346;52.088;4.746;2023-01-01T08:43:32;8.83;;;1.43;;
37495;SDS011;23346;52.088;4.746;2023-01-01T08:45:58;13.13;;;1.53;;
37495;SDS011;23346;52.088;4.746;2023-01-01T08:48:24;9.23;;;1.03;;
37495;SDS011;23346;52.088;4.746;2023-01-01T08:50:51;9.07;;;1.57;;
37495;SDS011;23346;52.088;4.746;2023-01-01T08:53:17;16.50;;;1.43;;
37495;SDS011;23346;52.088;4.746;2023-01-01T08:55:43;10.23;;;2.30;;
37495;SDS011;23346;52.088;4.746;2023-01-01T08:58:09;9.20;;;1.00;;
37495;SDS011;23346;52.088;4.746;2023-01-01T09:00:35;7.00;;;0.97;;
37495;SDS011;23346;52.088;4.746;2023-01-01T09:03:01;11.60;;;1.60;;
37495;SDS011;23346;52.088;4.746;2023-01-01T09:05:27;6.60;;;1.27;;
37495;SDS011;23346;52.088;4.746;2023-01-01T09:07:53;11.03;;;1.30;;
37495;SDS011;23346;52.088;4.746;2023-01-01T09:10:19;17.77;;;1.37;;
37495;SDS011;23346;52.088;4.746;2023-01-01T09:12:45;11.30;;;1.33;;
37495;SDS011;23346;52.088;4.746;2023-01-01T09:15:13;12.67;;;1.00;;
37495;SDS011;23346;52.088;4.746;2023-01-01T09:17:40;9.70;;;1.50;;
37495;SDS011;23346;52.088;4.746;2023-01-01T09:20:06;10.43;;;1.70;;
37495;SDS011;23346;52.088;4.746;2023-01-01T09:22:32;11.47;;;1.50;;
37495;SDS011;23346;52.088;4.746;2023-01-01T09:24:58;10.13;;;1.20;;
37495;SDS011;23346;52.088;4.746;2023-01-01T09:27:24;8.73;;;1.43;;
37495;SDS011;23346;52.088;4.746;2023-01-01T09:29:50;6.20;;;1.30;;
37495;SDS011;23346;52.088;4.746;2023-01-01T09:32:16;10.27;;;1.40;;
37495;SDS011;23346;52.088;4.746;2023-01-01T09:34:43;7.07;;;1.33;;
37495;SDS011;23346;52.088;4.746;2023-01-01T09:37:09;9.67;;;1.30;;
37495;SDS011;23346;52.088;4.746;2023-01-01T09:39:35;12.67;;;1.57;;
37495;SDS011;23346;52.088;4.746;2023-01-01T09:50:02;12.97;;;1.53;;
37495;SDS011;23346;52.088;4.746;2023-01-01T09:53:14;10.37;;;1.77;;
37495;SDS011;23346;52.088;4.746;2023-01-01T09:55:27;9.83;;;1.37;;
37495;SDS011;23346;52.088;4.746;2023-01-01T09:57:53;10.20;;;1.33;;
37495;SDS011;23346;52.088;4.746;2023-01-01T10:00:20;8.07;;;1.60;;
37495;SDS011;23346;52.088;4.746;2023-01-01T10:08:26;6.77;;;1.53;;
37495;SDS011;23346;52.088;4.746;2023-01-01T10:10:56;11.33;;;1.37;;
37495;SDS011;23346;52.088;4.746;2023-01-01T10:13:33;7.47;;;1.20;;
37495;SDS011;23346;52.088;4.746;2023-01-01T10:16:10;8.13;;;1.30;;
37495;SDS011;23346;52.088;4.746;2023-01-01T10:18:37;10.73;;;1.53;;
37495;SDS011;23346;52.088;4.746;2023-01-01T10:23:39;10.43;;;1.70;;
37495;SDS011;23346;52.088;4.746;2023-01-01T10:26:07;4.27;;;1.63;;
37495;SDS011;23346;52.088;4.746;2023-01-01T10:29:18;10.73;;;1.37;;
37495;SDS011;23346;52.088;4.746;2023-01-01T10:33:54;9.80;;;1.50;;
37495;SDS011;23346;52.088;4.746;2023-01-01T10:36:20;5.93;;;1.20;;
37495;SDS011;23346;52.088;4.746;2023-01-01T10:38:47;9.47;;;1.20;;
37495;SDS011;23346;52.088;4.746;2023-01-01T10:41:13;10.60;;;1.27;;
37495;SDS011;23346;52.088;4.746;2023-01-01T10:43:41;10.17;;;1.63;;
37495;SDS011;23346;52.088;4.746;2023-01-01T10:46:09;2.40;;;0.87;;
37495;SDS011;23346;52.088;4.746;2023-01-01T10:48:36;10.13;;;1.27;;
37495;SDS011;23346;52.088;4.746;2023-01-01T10:51:05;10.53;;;2.47;;
37495;SDS011;23346;52.088;4.746;2023-01-01T10:56:11;8.03;;;1.40;;
37495;SDS011;23346;52.088;4.746;2023-01-01T10:58:50;15.00;;;1.70;;
37495;SDS011;23346;52.088;4.746;2023-01-01T11:01:23;8.37;;;1.80;;
37495;SDS011;23346;52.088;4.746;2023-01-01T11:03:56;10.67;;;1.83;;
37495;SDS011;23346;52.088;4.746;2023-01-01T11:06:24;13.60;;;1.73;;
37495;SDS011;23346;52.088;4.746;2023-01-01T11:08:51;4.47;;;1.20;;
37495;SDS011;23346;52.088;4.746;2023-01-01T11:11:19;8.43;;;1.27;;
37495;SDS011;23346;52.088;4.746;2023-01-01T11:13:50;17.80;;;2.60;;
37495;SDS011;23346;52.088;4.746;2023-01-01T11:16:16;22.00;;;3.70;;
37495;SDS011;23346;52.088;4.746;2023-01-01T11:18:42;12.40;;;2.83;;
37495;SDS011;23346;52.088;4.746;2023-01-01T11:21:09;8.43;;;1.73;;
37495;SDS011;23346;52.088;4.746;2023-01-01T11:23:35;12.77;;;1.97;;
37495;SDS011;23346;52.088;4.746;2023-01-01T11:28:37;13.87;;;2.33;;
37495;SDS011;23346;52.088;4.746;2023-01-01T11:31:13;12.13;;;1.53;;
37495;SDS011;23346;52.088;4.746;2023-01-01T11:33:45;11.03;;;1.50;;
37495;SDS011;23346;52.088;4.746;2023-01-01T11:36:12;13.97;;;2.57;;
37495;SDS011;23346;52.088;4.746;2023-01-01T11:38:45;5.73;;;1.83;;
37495;SDS011;23346;52.088;4.746;2023-01-01T11:41:12;19.60;;;2.47;;
37495;SDS011;23346;52.088;4.746;2023-01-01T11:43:39;11.23;;;2.07;;
37495;SDS011;23346;52.088;4.746;2023-01-01T11:46:09;14.17;;;4.53;;
37495;SDS011;23346;52.088;4.746;2023-01-01T11:48:39;9.10;;;1.83;;
37495;SDS011;23346;52.088;4.746;2023-01-01T11:51:06;12.37;;;1.80;;
37495;SDS011;23346;52.088;4.746;2023-01-01T11:53:33;16.03;;;2.20;;
37495;SDS011;23346;52.088;4.746;2023-01-01T11:58:31;8.20;;;2.43;;
37495;SDS011;23346;52.088;4.746;2023-01-01T12:00:59;13.67;;;2.37;;
37495;SDS011;23346;52.088;4.746;2023-01-01T12:03:28;8.83;;;1.50;;
37495;SDS011;23346;52.088;4.746;2023-01-01T12:05:58;11.60;;;1.70;;
37495;SDS011;23346;52.088;4.746;2023-01-01T12:08:30;15.90;;;3.13;;
37495;SDS011;23346;52.088;4.746;2023-01-01T12:13:41;7.30;;;1.33;;
37495;SDS011;23346;52.088;4.746;2023-01-01T12:16:10;7.60;;;1.90;;
37495;SDS011;23346;52.088;4.746;2023-01-01T12:19:14;15.53;;;2.40;;
37495;SDS011;23346;52.088;4.746;2023-01-01T12:21:30;8.43;;;1.60;;
37495;SDS011;23346;52.088;4.746;2023-01-01T12:23:59;7.63;;;2.03;;
37495;SDS011;23346;52.088;4.746;2023-01-01T12:26:28;14.93;;;2.37;;
37495;SDS011;23346;52.088;4.746;2023-01-01T12:29:47;17.47;;;1.97;;
37495;SDS011;23346;52.088;4.746;2023-01-01T12:31:50;15.60;;;2.13;;
37495;SDS011;23346;52.088;4.746;2023-01-01T12:42:11;9.90;;;2.30;;
37495;SDS011;23346;52.088;4.746;2023-01-01T13:00:30;11.83;;;1.20;;
37495;SDS011;23346;52.088;4.746;2023-01-01T13:03:40;15.37;;;2.07;;
37495;SDS011;23346;52.088;4.746;2023-01-01T13:05:49;16.50;;;1.80;;
37495;SDS011;23346;52.088;4.746;2023-01-01T13:08:16;22.73;;;2.33;;
37495;SDS011;23346;52.088;4.746;2023-01-01T13:10:42;16.03;;;2.40;;
37495;SDS011;23346;52.088;4.746;2023-01-01T13:13:10;13.37;;;1.40;;
37495;SDS011;23346;52.088;4.746;2023-01-01T13:18:04;15.13;;;1.77;;
37495;SDS011;23346;52.088;4.746;2023-01-01T13:20:30;14.27;;;1.90;;
37495;SDS011;23346;52.088;4.746;2023-01-01T13:22:57;16.23;;;2.10;;
37495;SDS011;23346;52.088;4.746;2023-01-01T13:25:23;8.80;;;1.70;;
37495;SDS011;23346;52.088;4.746;2023-01-01T13:33:15;5.90;;;1.43;;
37495;SDS011;23346;52.088;4.746;2023-01-01T13:35:42;10.73;;;1.77;;
37495;SDS011;23346;52.088;4.746;2023-01-01T13:40:52;13.17;;;2.10;;
37495;SDS011;23346;52.088;4.746;2023-01-01T13:43:18;11.97;;;2.80;;
37495;SDS011;23346;52.088;4.746;2023-01-01T13:45:45;13.23;;;1.90;;
37495;SDS011;23346;52.088;4.746;2023-01-01T13:50:51;14.93;;;2.43;;
37495;SDS011;23346;52.088;4.746;2023-01-01T13:56:21;12.93;;;2.20;;
37495;SDS011;23346;52.088;4.746;2023-01-01T14:03:54;13.13;;;1.90;;
37495;SDS011;23346;52.088;4.746;2023-01-01T14:06:25;15.23;;;1.50;;
37495;SDS011;23346;52.088;4.746;2023-01-01T14:09:27;12.73;;;1.53;;
37495;SDS011;23346;52.088;4.746;2023-01-01T14:11:46;9.90;;;1.43;;
37495;SDS011;23346;52.088;4.746;2023-01-01T14:16:51;16.33;;;2.50;;
37495;SDS011;23346;52.088;4.746;2023-01-01T14:19:19;10.40;;;2.53;;
37495;SDS011;23346;52.088;4.746;2023-01-01T14:21:45;11.70;;;1.70;;
37495;SDS011;23346;52.088;4.746;2023-01-01T14:24:12;12.27;;;2.17;;
37495;SDS011;23346;52.088;4.746;2023-01-01T14:26:39;14.00;;;2.47;;
37495;SDS011;23346;52.088;4.746;2023-01-01T14:29:06;19.20;;;2.13;;
37495;SDS011;23346;52.088;4.746;2023-01-01T14:31:34;10.17;;;3.00;;
37495;SDS011;23346;52.088;4.746;2023-01-01T14:34:12;17.53;;;3.97;;
37495;SDS011;23346;52.088;4.746;2023-01-01T14:36:38;18.37;;;3.47;;
37495;SDS011;23346;52.088;4.746;2023-01-01T14:39:21;16.07;;;2.83;;
37495;SDS011;23346;52.088;4.746;2023-01-01T14:41:47;10.07;;;2.60;;
37495;SDS011;23346;52.088;4.746;2023-01-01T14:44:18;15.37;;;2.43;;
37495;SDS011;23346;52.088;4.746;2023-01-01T14:46:45;13.73;;;2.23;;
37495;SDS011;23346;52.088;4.746;2023-01-01T14:49:16;14.20;;;2.83;;
37495;SDS011;23346;52.088;4.746;2023-01-01T14:51:46;14.10;;;3.00;;
37495;SDS011;23346;52.088;4.746;2023-01-01T14:54:15;7.97;;;3.00;;
37495;SDS011;23346;52.088;4.746;2023-01-01T14:56:44;17.13;;;4.40;;
37495;SDS011;23346;52.088;4.746;2023-01-01T14:59:12;13.30;;;2.90;;
37495;SDS011;23346;52.088;4.746;2023-01-01T15:01:40;15.80;;;3.23;;
37495;SDS011;23346;52.088;4.746;2023-01-01T15:04:19;14.27;;;5.17;;
37495;SDS011;23346;52.088;4.746;2023-01-01T15:09:19;15.93;;;3.93;;
37495;SDS011;23346;52.088;4.746;2023-01-01T15:11:45;12.33;;;3.00;;
37495;SDS011;23346;52.088;4.746;2023-01-01T15:14:27;14.83;;;3.97;;
37495;SDS011;23346;52.088;4.746;2023-01-01T15:17:09;16.93;;;4.63;;
37495;SDS011;23346;52.088;4.746;2023-01-01T15:19:36;12.97;;;3.17;;
37495;SDS011;23346;52.088;4.746;2023-01-01T15:24:49;12.53;;;3.57;;
37495;SDS011;23346;52.088;4.746;2023-01-01T15:27:20;19.07;;;4.40;;
37495;SDS011;23346;52.088;4.746;2023-01-01T15:29:46;11.57;;;3.13;;
37495;SDS011;23346;52.088;4.746;2023-01-01T15:32:13;14.37;;;3.77;;
37495;SDS011;23346;52.088;4.746;2023-01-01T15:37:07;15.20;;;3.73;;
37495;SDS011;23346;52.088;4.746;2023-01-01T15:39:43;13.57;;;3.13;;
37495;SDS011;23346;52.088;4.746;2023-01-01T15:42:20;14.23;;;3.63;;
37495;SDS011;23346;52.088;4.746;2023-01-01T15:44:46;35.73;;;10.60;;
37495;SDS011;23346;52.088;4.746;2023-01-01T15:47:13;22.83;;;6.93;;
37495;SDS011;23346;52.088;4.746;2023-01-01T15:49:39;19.20;;;5.93;;
37495;SDS011;23346;52.088;4.746;2023-01-01T15:52:13;17.63;;;5.77;;
37495;SDS011;23346;52.088;4.746;2023-01-01T15:54:43;16.50;;;4.30;;
37495;SDS011;23346;52.088;4.746;2023-01-01T15:57:19;17.63;;;3.87;;
37495;SDS011;23346;52.088;4.746;2023-01-01T15:59:46;16.63;;;4.87;;
37495;SDS011;23346;52.088;4.746;2023-01-01T16:02:15;13.13;;;3.27;;
37495;SDS011;23346;52.088;4.746;2023-01-01T16:04:46;14.17;;;3.97;;
37495;SDS011;23346;52.088;4.746;2023-01-01T16:07:16;19.60;;;3.90;;
37495;SDS011;23346;52.088;4.746;2023-01-01T16:09:44;13.80;;;3.60;;
37495;SDS011;23346;52.088;4.746;2023-01-01T16:12:10;15.10;;;3.63;;
37495;SDS011;23346;52.088;4.746;2023-01-01T16:14:36;15.87;;;3.67;;
37495;SDS011;23346;52.088;4.746;2023-01-01T16:17:03;12.13;;;3.43;;
37495;SDS011;23346;52.088;4.746;2023-01-01T16:19:29;12.83;;;4.30;;
37495;SDS011;23346;52.088;4.746;2023-01-01T16:21:56;15.90;;;3.60;;
37495;SDS011;23346;52.088;4.746;2023-01-01T16:24:21;12.83;;;2.90;;
37495;SDS011;23346;52.088;4.746;2023-01-01T16:26:48;16.70;;;3.73;;
37495;SDS011;23346;52.088;4.746;2023-01-01T16:29:15;17.00;;;2.70;;
37495;SDS011;23346;52.088;4.746;2023-01-01T16:31:41;13.63;;;3.07;;
37495;SDS011;23346;52.088;4.746;2023-01-01T16:34:11;16.07;;;3.00;;
37495;SDS011;23346;52.088;4.746;2023-01-01T16:36:38;14.40;;;3.20;;
37495;SDS011;23346;52.088;4.746;2023-01-01T16:39:04;18.07;;;3.27;;